Terminal Aerodrome Forecast
Issued by NWS Missoula, MT

Home | Current Version | Previous Version | Text Only | Print | Product List | Glossary On
Versions: 1 2 3 4 5 6 7 8 9 10 11 12 13
230
FTUS45 KMSO 011720
TAFBTM
TAF
KBTM 011720Z 0118/0218 17010G15KT P6SM -SHRA BKN080
     FM012100 25014G22KT P6SM -SHRA VCTS BKN050CB
     FM012300 26010KT P6SM SCT050
     FM020200 31005KT P6SM SKC=

USA.gov is the U.S. government's official web portal to all federal, state and local government web resources and services.